createdAt,value
2022-09-04T16:08:03.084Z,101161.13
2022-09-04T16:10:57.421Z,101160.06
2022-09-04T16:15:05.950Z,101171.53
2022-09-04T16:17:32.436Z,101180.09
2022-09-04T16:19:58.846Z,101183.78
2022-09-04T16:24:47.287Z,101178.97
2022-09-04T16:27:19.898Z,101170.44
2022-09-04T16:29:49.220Z,101062.09
2022-09-04T16:32:24.086Z,101141.53
2022-09-04T16:34:56.475Z,101178.06
2022-09-04T16:37:34.437Z,101170.28
2022-09-04T16:40:03.919Z,101171.88
2022-09-04T16:42:37.647Z,101166.78
2022-09-04T16:45:05.185Z,101172.53
2022-09-04T16:47:31.802Z,101177.75
2022-09-04T16:49:58.428Z,101178.19
2022-09-04T16:52:26.997Z,101178.16
2022-09-04T16:54:54.982Z,101178.88
2022-09-04T16:57:24.027Z,101168.09
2022-09-04T16:59:51.173Z,101161.88
2022-09-04T17:02:24.128Z,101156.25
2022-09-04T17:05:06.775Z,101158.59
2022-09-04T17:07:33.781Z,101167.09
2022-09-04T17:10:04.423Z,101164.50
2022-09-04T17:12:32.909Z,101166.72
2022-09-04T17:14:59.652Z,101162.88
2022-09-04T17:17:31.300Z,101159.28
2022-09-04T17:19:58.922Z,101154.66
2022-09-04T17:29:01.277Z,101162.38
2022-09-04T17:29:13.594Z,101155.50
2022-09-04T17:29:16.890Z,101153.25
2022-09-04T17:30:53.967Z,101154.47
2022-09-04T17:37:56.546Z,101156.97
2022-09-04T17:40:50.004Z,101155.50
2022-09-04T17:40:54.280Z,101156.53
2022-09-04T17:41:58.136Z,101160.84
2022-09-04T17:44:29.269Z,101158.19
2022-09-04T17:46:58.483Z,101159.31
2022-09-04T17:49:29.413Z,101161.72
2022-09-04T17:52:01.178Z,101159.75
2022-09-04T17:54:30.913Z,101163.75
2022-09-04T17:56:57.858Z,101165.00
2022-09-04T17:59:24.233Z,101161.22
2022-09-04T18:01:52.408Z,101165.19
2022-09-04T18:04:22.817Z,101161.69
2022-09-04T18:06:51.803Z,101174.50
2022-09-04T18:09:26.368Z,101168.78
2022-09-04T18:11:59.890Z,101178.56
2022-09-04T18:14:33.987Z,101175.16
2022-09-04T18:17:11.612Z,101176.41
2022-09-04T18:19:39.939Z,101189.50
2022-09-04T18:22:22.153Z,101195.00
2022-09-04T18:24:56.285Z,101196.53
2022-09-04T18:27:23.100Z,101205.22
2022-09-04T18:31:11.290Z,101207.44
2022-09-04T18:37:11.912Z,101211.31
2022-09-04T18:37:17.612Z,101217.31
2022-09-04T18:38:10.314Z,101215.28
2022-09-04T18:41:22.185Z,101224.41
2022-09-04T18:50:23.227Z,101226.06
2022-09-04T18:50:28.449Z,101230.44
2022-09-04T18:50:49.354Z,101223.03
2022-09-04T18:51:52.323Z,101227.47
2022-09-04T18:54:19.071Z,101230.16
2022-09-04T18:56:45.864Z,101230.16
2022-09-04T18:59:12.323Z,101237.16
2022-09-04T19:01:41.961Z,101239.41
2022-09-04T19:04:19.219Z,101246.72
2022-09-04T19:06:49.213Z,101248.41
2022-09-04T19:09:15.672Z,101249.78
2022-09-04T19:11:44.719Z,101246.09
2022-09-04T19:14:11.366Z,101251.72
2022-09-04T19:16:40.630Z,101252.56
2022-09-04T19:19:11.213Z,101246.19
2022-09-04T19:21:44.509Z,101252.69
2022-09-04T19:24:31.473Z,101250.06
2022-09-04T19:27:01.266Z,101257.06
2022-09-04T19:29:27.624Z,101253.91
2022-09-04T19:31:54.076Z,101248.03
2022-09-04T19:34:20.642Z,101252.31
2022-09-04T19:36:47.095Z,101247.00
2022-09-04T19:45:54.954Z,101252.38
2022-09-04T19:46:01.338Z,101243.28
2022-09-04T19:46:25.664Z,101253.50
2022-09-04T19:47:37.909Z,101252.97
2022-09-04T19:53:17.713Z,101253.00
2022-09-04T19:53:36.808Z,101248.19
2022-09-04T19:55:40.328Z,101254.88
2022-09-04T19:58:06.714Z,101250.88
2022-09-04T20:00:43.847Z,101254.09
2022-09-04T20:03:13.477Z,101250.59
2022-09-04T20:05:55.707Z,101262.06
2022-09-04T20:08:27.611Z,101262.91
2022-09-04T20:10:54.023Z,101267.75
2022-09-04T20:13:20.927Z,101273.34
2022-09-04T20:15:47.737Z,101266.16
2022-09-04T20:18:14.280Z,101265.91
2022-09-04T20:20:44.893Z,101268.84
2022-09-04T20:31:45.178Z,101277.94
2022-09-04T20:34:11.830Z,101282.75
2022-09-04T20:36:38.471Z,101281.44
2022-09-04T20:39:05.459Z,101292.09
2022-09-04T20:41:31.912Z,101289.44
2022-09-04T20:43:58.421Z,101284.63
2022-09-04T20:50:46.655Z,101283.56
2022-09-04T20:52:49.564Z,101280.84
2022-09-04T20:52:52.415Z,101281.94
2022-09-04T20:54:45.010Z,101288.31
2022-09-04T20:58:47.857Z,101288.56
2022-09-04T21:03:17.388Z,101300.56
2022-09-04T21:03:21.624Z,101298.16
2022-09-04T21:05:34.877Z,101294.97
2022-09-04T21:08:02.482Z,101299.22
2022-09-04T21:10:28.924Z,101305.34
2022-09-04T21:13:13.557Z,101296.81
2022-09-04T21:15:41.586Z,101298.13
2022-09-04T21:18:08.031Z,101304.53
2022-09-04T21:20:35.653Z,101298.91
2022-09-04T21:23:13.287Z,101306.09
2022-09-04T21:25:39.630Z,101303.13
2022-09-04T21:28:06.143Z,101308.19
2022-09-04T21:30:32.689Z,101301.75
2022-09-04T21:33:28.294Z,101302.53
2022-09-04T21:35:49.491Z,101302.78
2022-09-04T21:38:16.114Z,101300.38
2022-09-04T21:40:51.549Z,101305.69
2022-09-04T21:43:18.981Z,101309.13
2022-09-04T21:45:45.391Z,101300.88
2022-09-04T21:48:18.181Z,101304.63
2022-09-04T21:50:49.901Z,101308.69
2022-09-04T21:53:25.366Z,101305.22
2022-09-04T22:02:25.467Z,101308.34
2022-09-04T22:02:40.459Z,101307.53
2022-09-04T22:02:41.532Z,101301.88
2022-09-04T22:04:13.394Z,101307.78
2022-09-04T22:08:01.078Z,101308.28
2022-09-04T22:13:29.292Z,101301.88
2022-09-04T22:13:37.744Z,101303.97
2022-09-04T22:15:02.734Z,101296.25
2022-09-04T22:17:29.249Z,101302.09
2022-09-04T22:22:54.447Z,101304.44
2022-09-04T22:25:20.847Z,101303.09
2022-09-04T22:28:08.336Z,101303.91
2022-09-04T22:30:33.923Z,101307.06
2022-09-04T22:33:00.419Z,101305.97
2022-09-04T22:35:36.163Z,101316.84
2022-09-04T22:38:03.639Z,101315.28
2022-09-04T22:40:30.034Z,101317.13
2022-09-04T22:42:56.695Z,101322.69
2022-09-04T22:45:23.083Z,101320.81
2022-09-04T22:47:53.408Z,101319.16
2022-09-04T22:50:19.822Z,101320.47
2022-09-04T22:52:51.741Z,101328.13
2022-09-04T22:55:39.129Z,101328.06
2022-09-04T22:58:05.447Z,101324.31
2022-09-04T23:00:31.835Z,101325.84
2022-09-04T23:03:15.078Z,101332.47
2022-09-04T23:05:41.602Z,101334.00
2022-09-04T23:13:54.846Z,101329.69
2022-09-04T23:13:56.230Z,101332.63
2022-09-04T23:14:01.391Z,101332.38
2022-09-04T23:16:28.585Z,101330.31
2022-09-04T23:22:35.523Z,101323.94
2022-09-04T23:26:38.230Z,101332.22
2022-09-04T23:26:50.541Z,101328.72
2022-09-04T23:27:28.600Z,101331.88
2022-09-04T23:29:59.414Z,101328.38
2022-09-04T23:32:26.375Z,101328.88
2022-09-04T23:35:13.906Z,101330.97
2022-09-04T23:37:41.300Z,101322.94
2022-09-04T23:40:14.463Z,101339.91
2022-09-04T23:42:40.873Z,101332.69
2022-09-04T23:45:07.330Z,101336.09
2022-09-04T23:47:47.718Z,101334.44
2022-09-04T23:50:16.037Z,101337.03
2022-09-04T23:52:48.906Z,101331.13
2022-09-04T23:55:15.927Z,101334.28
2022-09-04T23:57:45.453Z,101334.72
